createdAt,value
2018-12-27T00:00:15.641Z,0.60
2018-12-27T00:02:59.625Z,0.70
2018-12-27T00:05:41.723Z,0.50
2018-12-27T00:08:23.992Z,0.40
2018-12-27T00:11:05.924Z,0.50
2018-12-27T00:13:47.486Z,0.70
2018-12-27T00:16:29.490Z,0.70
2018-12-27T00:19:11.835Z,0.80
2018-12-27T00:21:55.035Z,0.70
2018-12-27T00:24:37.077Z,0.50
2018-12-27T00:30:09.479Z,0.50
2018-12-27T00:32:52.459Z,0.60
2018-12-27T00:35:34.901Z,0.60
2018-12-27T00:38:17.218Z,0.60
2018-12-27T00:40:58.703Z,0.80
2018-12-27T00:43:40.860Z,0.70
2018-12-27T00:46:22.342Z,0.70
2018-12-27T00:49:03.850Z,0.70
2018-12-27T00:51:46.333Z,0.70
2018-12-27T00:54:28.475Z,0.80
2018-12-27T00:57:11.223Z,0.80
2018-12-27T00:59:53.869Z,0.60
2018-12-27T01:02:38.088Z,0.80
2018-12-27T01:05:20.146Z,0.80
2018-12-27T01:08:03.669Z,0.60
2018-12-27T01:10:45.127Z,0.60
2018-12-27T01:13:27.506Z,0.60
2018-12-27T01:16:10.677Z,0.70
2018-12-27T01:18:52.831Z,0.70
2018-12-27T01:21:34.918Z,0.60
2018-12-27T01:24:16.579Z,0.80
2018-12-27T01:26:58.729Z,0.90
2018-12-27T01:29:41.017Z,1.00
2018-12-27T01:32:23.107Z,0.80
2018-12-27T01:35:05.418Z,0.90
2018-12-27T01:37:49.135Z,0.90
2018-12-27T01:40:31.483Z,0.90
2018-12-27T01:43:13.685Z,0.80
2018-12-27T01:45:57.059Z,0.70
2018-12-27T01:48:39.056Z,0.80
2018-12-27T01:51:24.529Z,0.90
2018-12-27T01:54:06.467Z,0.90
2018-12-27T01:56:47.995Z,0.90
2018-12-27T01:59:29.575Z,0.80
2018-12-27T02:02:12.724Z,0.80
2018-12-27T02:04:54.766Z,0.80
2018-12-27T02:07:38.433Z,0.80
2018-12-27T02:10:20.318Z,0.80
2018-12-27T02:13:03.672Z,0.70
2018-12-27T02:15:45.560Z,0.70
2018-12-27T02:18:27.741Z,0.70
2018-12-27T02:21:10.860Z,0.80
2018-12-27T02:23:52.860Z,0.80
2018-12-27T02:26:36.280Z,0.80
2018-12-27T02:29:18.414Z,0.70
2018-12-27T02:35:46.889Z,0.80
2018-12-27T02:38:29.063Z,0.90
2018-12-27T02:41:12.263Z,0.90
2018-12-27T02:43:54.587Z,0.80
2018-12-27T02:46:38.195Z,1.00
2018-12-27T02:49:20.520Z,1.00
2018-12-27T02:52:03.843Z,1.00
2018-12-27T02:54:46.118Z,0.90
2018-12-27T02:57:28.531Z,0.90
2018-12-27T03:00:10.941Z,0.80
2018-12-27T03:02:54.726Z,0.80
2018-12-27T03:05:37.256Z,0.90
2018-12-27T03:08:18.871Z,0.90
2018-12-27T03:11:02.121Z,0.90
2018-12-27T03:13:44.321Z,1.00
2018-12-27T03:16:26.713Z,0.90
2018-12-27T03:19:09.072Z,0.90
2018-12-27T03:24:41.635Z,1.00
2018-12-27T03:27:23.945Z,0.90
2018-12-27T03:30:05.399Z,0.90
2018-12-27T03:32:48.620Z,1.10
2018-12-27T03:35:30.055Z,1.20
2018-12-27T03:38:12.252Z,1.10
2018-12-27T03:40:55.844Z,1.20
2018-12-27T03:43:38.118Z,1.10
2018-12-27T03:46:22.222Z,1.10
2018-12-27T03:49:04.068Z,1.20
2018-12-27T03:55:11.727Z,1.00
2018-12-27T03:57:54.801Z,0.90
2018-12-27T04:00:37.083Z,0.70
2018-12-27T04:03:18.566Z,0.90
2018-12-27T04:06:00.195Z,0.90
2018-12-27T04:08:42.508Z,0.90
2018-12-27T04:11:24.783Z,0.90
2018-12-27T04:14:06.832Z,0.80
2018-12-27T04:20:17.820Z,0.80
2018-12-27T04:22:48.527Z,1.00
2018-12-27T04:25:37.426Z,0.90
2018-12-27T04:28:19.791Z,0.80
2018-12-27T04:34:11.352Z,0.90
2018-12-27T04:36:53.678Z,0.80
2018-12-27T04:42:21.074Z,0.90
2018-12-27T04:45:03.031Z,0.70
2018-12-27T04:47:46.573Z,0.90
2018-12-27T04:50:28.790Z,0.70
2018-12-27T04:53:10.923Z,0.90
2018-12-27T04:55:54.826Z,0.90
2018-12-27T04:58:37.075Z,0.60
2018-12-27T05:01:19.639Z,0.50
2018-12-27T05:04:01.597Z,0.70
2018-12-27T05:06:45.166Z,0.70
2018-12-27T05:09:27.466Z,0.70
2018-12-27T05:12:10.851Z,0.70
2018-12-27T05:14:53.192Z,0.60
2018-12-27T05:17:35.340Z,0.60
2018-12-27T05:20:17.471Z,0.60
2018-12-27T05:23:00.652Z,0.80
2018-12-27T05:25:42.953Z,0.60
2018-12-27T05:28:25.243Z,0.50
2018-12-27T05:31:06.727Z,0.60
2018-12-27T05:33:48.722Z,0.50
2018-12-27T05:36:30.944Z,0.30
2018-12-27T05:39:13.243Z,0.60
2018-12-27T05:41:55.172Z,0.50
2018-12-27T05:44:37.222Z,0.30
2018-12-27T05:47:19.234Z,0.50
2018-12-27T05:50:00.688Z,0.60
2018-12-27T05:52:44.152Z,0.70
2018-12-27T05:55:34.057Z,0.60
2018-12-27T05:58:09.858Z,0.60
2018-12-27T06:00:53.210Z,0.60
2018-12-27T06:03:35.075Z,0.60
2018-12-27T06:06:18.335Z,0.50
2018-12-27T06:12:10.383Z,0.50
2018-12-27T06:14:52.044Z,0.50
2018-12-27T06:17:35.304Z,0.60
2018-12-27T06:20:16.824Z,0.60
2018-12-27T06:23:00.099Z,0.60
2018-12-27T06:25:41.461Z,0.60
2018-12-27T06:28:22.863Z,0.70
2018-12-27T06:31:06.557Z,0.50
2018-12-27T06:33:48.075Z,0.40
2018-12-27T06:36:29.774Z,0.50
2018-12-27T06:39:12.007Z,0.30
2018-12-27T06:41:53.691Z,0.20
2018-12-27T06:44:35.740Z,0.30
2018-12-27T06:47:06.358Z,0.30
2018-12-27T06:49:55.190Z,0.00
2018-12-27T06:52:38.198Z,-0.10
2018-12-27T06:58:03.193Z,0.00
2018-12-27T07:00:44.943Z,0.20
2018-12-27T07:03:27.289Z,0.20
2018-12-27T07:06:08.937Z,-0.10
2018-12-27T07:08:51.312Z,-0.20
2018-12-27T07:11:32.687Z,0.00
2018-12-27T07:14:15.088Z,0.20
2018-12-27T07:16:58.544Z,0.20
2018-12-27T07:19:40.867Z,0.30
2018-12-27T07:25:27.188Z,0.40
2018-12-27T07:28:09.384Z,0.40
2018-12-27T07:30:52.888Z,0.20
2018-12-27T07:33:34.408Z,0.10
2018-12-27T07:36:16.687Z,0.20
2018-12-27T07:38:59.168Z,0.10
2018-12-27T07:41:42.322Z,0.10
2018-12-27T07:44:23.703Z,0.20
2018-12-27T07:47:05.738Z,0.30
2018-12-27T07:49:47.750Z,0.40
2018-12-27T07:52:29.969Z,0.60
2018-12-27T07:55:11.455Z,0.50
2018-12-27T07:57:54.435Z,0.60
2018-12-27T08:00:36.323Z,0.30
2018-12-27T08:03:18.568Z,0.40
2018-12-27T08:06:01.917Z,0.50
2018-12-27T08:08:44.147Z,0.60
2018-12-27T08:11:27.295Z,0.40
2018-12-27T08:14:08.768Z,1.00
2018-12-27T08:17:11.316Z,1.50
2018-12-27T08:19:52.852Z,1.50
2018-12-27T08:22:34.692Z,1.30
2018-12-27T08:25:16.556Z,1.00
2018-12-27T08:27:59.936Z,1.00
2018-12-27T08:30:42.067Z,0.90
2018-12-27T08:33:23.557Z,0.90
2018-12-27T08:36:05.555Z,0.70
2018-12-27T08:38:47.115Z,1.00
2018-12-27T08:41:30.282Z,0.70
2018-12-27T08:44:12.575Z,0.70
2018-12-27T08:46:54.035Z,0.60
2018-12-27T08:49:35.411Z,1.00
2018-12-27T08:52:18.475Z,1.00
2018-12-27T08:55:01.747Z,1.00
2018-12-27T08:57:44.830Z,0.90
2018-12-27T09:00:27.046Z,1.10
2018-12-27T09:03:09.259Z,0.80
2018-12-27T09:05:52.768Z,0.80
2018-12-27T09:08:35.027Z,1.00
2018-12-27T09:11:18.348Z,0.90
2018-12-27T09:14:00.448Z,1.00
2018-12-27T09:16:44.299Z,1.10
2018-12-27T09:22:10.198Z,1.00
2018-12-27T09:24:51.780Z,1.20
2018-12-27T09:27:35.288Z,1.40
2018-12-27T09:30:16.895Z,1.60
2018-12-27T09:33:00.229Z,1.50
2018-12-27T09:35:44.242Z,1.50
2018-12-27T09:38:26.235Z,1.50
2018-12-27T09:41:09.334Z,1.60
2018-12-27T09:43:51.766Z,1.60
2018-12-27T09:46:33.796Z,1.80
2018-12-27T09:49:15.734Z,2.00
2018-12-27T09:52:02.094Z,2.20
2018-12-27T09:54:41.415Z,2.20
2018-12-27T09:57:12.098Z,1.70
2018-12-27T09:59:55.400Z,1.90
2018-12-27T10:02:38.753Z,2.10
2018-12-27T10:05:08.238Z,2.30
2018-12-27T10:11:03.779Z,2.10
2018-12-27T10:13:46.094Z,2.00
2018-12-27T10:16:29.657Z,1.90
2018-12-27T10:19:11.801Z,1.80
2018-12-27T10:21:54.175Z,2.00
2018-12-27T10:24:36.326Z,2.10
2018-12-27T10:27:19.764Z,2.10
2018-12-27T10:30:02.073Z,2.00
2018-12-27T10:32:45.232Z,2.10
2018-12-27T10:35:27.487Z,2.30
2018-12-27T10:38:09.321Z,2.50
2018-12-27T10:40:51.664Z,2.70
2018-12-27T10:43:34.019Z,2.60
2018-12-27T10:46:17.592Z,2.70
2018-12-27T10:48:59.111Z,3.10
2018-12-27T10:51:41.030Z,3.30
2018-12-27T10:54:23.272Z,3.90
2018-12-27T10:57:06.422Z,4.90
2018-12-27T10:59:48.604Z,5.90
2018-12-27T11:02:31.915Z,6.70
2018-12-27T11:05:01.445Z,6.90
2018-12-27T11:07:51.821Z,6.80
2018-12-27T11:10:33.487Z,6.70
2018-12-27T11:13:15.727Z,6.20
2018-12-27T11:15:59.011Z,5.40
2018-12-27T11:18:28.603Z,5.30
2018-12-27T11:21:19.007Z,5.40
2018-12-27T11:24:01.279Z,5.90
2018-12-27T11:26:42.887Z,6.40
2018-12-27T11:29:25.195Z,6.50
2018-12-27T11:35:16.931Z,6.60
2018-12-27T11:37:47.642Z,6.10
2018-12-27T11:40:36.547Z,5.50
2018-12-27T11:43:18.683Z,5.00
2018-12-27T11:46:02.249Z,5.00
2018-12-27T11:48:44.444Z,5.00
2018-12-27T11:51:27.779Z,4.80
2018-12-27T11:54:10.062Z,4.90
2018-12-27T11:56:53.384Z,5.20
2018-12-27T11:59:35.703Z,5.80
2018-12-27T12:02:17.943Z,6.00
2018-12-27T12:04:59.254Z,6.10
2018-12-27T12:07:42.199Z,5.40
2018-12-27T12:10:24.228Z,5.40
2018-12-27T12:13:06.664Z,5.60
2018-12-27T12:15:49.911Z,5.20
2018-12-27T12:18:32.040Z,5.50
2018-12-27T12:21:14.395Z,6.40
2018-12-27T12:23:57.791Z,7.20
2018-12-27T12:26:41.063Z,6.90
2018-12-27T12:29:22.945Z,6.40
2018-12-27T12:32:05.280Z,5.80
2018-12-27T12:34:46.735Z,5.90
2018-12-27T12:37:30.744Z,5.80
2018-12-27T12:40:12.748Z,5.70
2018-12-27T12:42:56.415Z,5.80
2018-12-27T12:45:38.447Z,7.00
2018-12-27T12:48:20.585Z,8.30
2018-12-27T12:51:04.108Z,8.80
2018-12-27T12:53:46.526Z,9.40
2018-12-27T12:56:28.156Z,9.20
2018-12-27T12:59:10.521Z,9.50
2018-12-27T13:01:52.079Z,8.40
2018-12-27T13:04:34.004Z,7.60
2018-12-27T13:07:16.185Z,7.20
2018-12-27T13:09:57.817Z,6.30
2018-12-27T13:12:39.990Z,6.70
2018-12-27T13:15:22.331Z,6.40
2018-12-27T13:18:03.733Z,6.10
2018-12-27T13:20:47.043Z,5.80
2018-12-27T13:26:11.420Z,5.70
2018-12-27T13:28:53.095Z,5.50
2018-12-27T13:31:36.424Z,5.40
2018-12-27T13:34:18.395Z,5.40
2018-12-27T13:37:01.863Z,5.40
2018-12-27T13:39:43.839Z,5.20
2018-12-27T13:42:13.247Z,5.10
2018-12-27T13:44:42.725Z,5.00
2018-12-27T13:47:24.727Z,4.90
2018-12-27T13:50:06.687Z,4.80
2018-12-27T13:52:50.555Z,4.80
2018-12-27T13:55:33.598Z,4.90
2018-12-27T13:58:15.330Z,4.80
2018-12-27T14:00:58.106Z,4.70
2018-12-27T14:03:27.652Z,4.70
2018-12-27T14:06:18.072Z,4.70
2018-12-27T14:09:00.397Z,4.70
2018-12-27T14:11:44.301Z,4.60
2018-12-27T14:14:26.043Z,4.60
2018-12-27T14:17:08.384Z,4.50
2018-12-27T14:19:50.758Z,4.30
2018-12-27T14:22:21.480Z,4.40
2018-12-27T14:25:11.871Z,4.30
2018-12-27T14:27:54.899Z,4.30
2018-12-27T14:30:37.059Z,4.20
2018-12-27T14:33:19.352Z,4.10
2018-12-27T14:36:00.724Z,4.00
2018-12-27T14:38:42.221Z,3.90
2018-12-27T14:41:25.431Z,3.80
2018-12-27T14:44:07.795Z,3.80
2018-12-27T14:46:49.449Z,3.80
2018-12-27T14:49:31.082Z,3.70
2018-12-27T14:52:13.407Z,3.60
2018-12-27T14:54:56.823Z,3.60
2018-12-27T14:57:39.208Z,3.50
2018-12-27T15:00:21.124Z,3.40
2018-12-27T15:03:04.567Z,3.20
2018-12-27T15:05:46.567Z,3.20
2018-12-27T15:08:29.723Z,3.10
2018-12-27T15:11:14.260Z,2.90
2018-12-27T15:13:56.610Z,2.90
2018-12-27T15:16:38.993Z,2.80
2018-12-27T15:19:20.515Z,2.70
2018-12-27T15:22:02.615Z,2.80
2018-12-27T15:24:44.210Z,2.80
2018-12-27T15:27:26.337Z,2.50
2018-12-27T15:30:08.556Z,2.50
2018-12-27T15:32:51.866Z,2.30
2018-12-27T15:35:33.390Z,2.30
2018-12-27T15:38:16.000Z,2.20
2018-12-27T15:40:58.512Z,2.40
2018-12-27T15:43:40.422Z,2.30
2018-12-27T15:46:23.591Z,2.20
2018-12-27T15:49:05.895Z,2.00
2018-12-27T15:51:48.540Z,1.80
2018-12-27T15:54:30.663Z,1.80
2018-12-27T15:57:13.836Z,1.80
2018-12-27T15:59:56.193Z,1.70
2018-12-27T16:02:39.627Z,1.60
2018-12-27T16:05:21.843Z,1.60
2018-12-27T16:08:04.847Z,1.50
2018-12-27T16:10:46.520Z,1.60
2018-12-27T16:13:28.655Z,1.60
2018-12-27T16:16:12.213Z,1.60
2018-12-27T16:18:54.556Z,1.60
2018-12-27T16:21:38.112Z,1.50
2018-12-27T16:24:20.254Z,1.50
2018-12-27T16:27:02.558Z,1.50
2018-12-27T16:29:44.831Z,1.50
2018-12-27T16:32:28.477Z,1.40
2018-12-27T16:35:10.237Z,1.50
2018-12-27T16:37:53.541Z,1.60
2018-12-27T16:40:35.036Z,1.60
2018-12-27T16:43:16.555Z,1.70
2018-12-27T16:45:46.058Z,1.70
2018-12-27T16:48:34.941Z,1.70
2018-12-27T16:51:37.079Z,1.70
2018-12-27T16:54:19.392Z,1.70
2018-12-27T16:57:02.931Z,1.60
2018-12-27T16:59:44.462Z,1.50
2018-12-27T17:02:26.920Z,1.20
2018-12-27T17:04:56.442Z,0.90
2018-12-27T17:07:46.822Z,0.90
2018-12-27T17:10:28.812Z,0.80
2018-12-27T17:15:41.088Z,1.00
2018-12-27T17:18:30.023Z,0.90
2018-12-27T17:21:18.966Z,0.80
2018-12-27T17:24:02.432Z,0.90
2018-12-27T17:26:45.905Z,0.80
2018-12-27T17:29:27.488Z,0.80
2018-12-27T17:32:10.842Z,0.80
2018-12-27T17:34:52.775Z,1.00
2018-12-27T17:37:34.372Z,1.00
2018-12-27T17:40:16.467Z,0.90
2018-12-27T17:42:59.903Z,1.00
2018-12-27T17:45:41.620Z,1.00
2018-12-27T17:48:23.904Z,1.00
2018-12-27T17:51:06.692Z,1.10
2018-12-27T17:53:48.992Z,1.10
2018-12-27T17:56:30.773Z,1.20
2018-12-27T17:59:12.732Z,1.10
2018-12-27T18:01:56.283Z,1.20
2018-12-27T18:04:38.461Z,1.10
2018-12-27T18:07:21.662Z,1.20
2018-12-27T18:10:04.134Z,1.50
2018-12-27T18:12:47.678Z,1.40
2018-12-27T18:18:55.359Z,1.40
2018-12-27T18:21:36.942Z,1.50
2018-12-27T18:24:06.361Z,1.60
2018-12-27T18:26:55.227Z,1.50
2018-12-27T18:29:36.710Z,1.40
2018-12-27T18:32:19.351Z,1.20
2018-12-27T18:35:01.693Z,1.10
2018-12-27T18:37:45.392Z,1.10
2018-12-27T18:40:27.444Z,1.10
2018-12-27T18:43:08.974Z,0.80
2018-12-27T18:45:52.464Z,0.70
2018-12-27T18:48:34.429Z,0.70
2018-12-27T18:51:19.155Z,0.60
2018-12-27T18:53:48.634Z,0.50
2018-12-27T18:56:39.055Z,0.60
2018-12-27T18:59:08.481Z,0.70
2018-12-27T19:01:55.178Z,0.80
2018-12-27T19:04:38.512Z,0.70
2018-12-27T19:07:20.735Z,0.70
2018-12-27T19:10:03.083Z,0.80
2018-12-27T19:12:46.485Z,0.70
2018-12-27T19:15:16.136Z,0.60
2018-12-27T19:18:27.365Z,0.70
2018-12-27T19:21:09.727Z,0.70
2018-12-27T19:23:51.292Z,0.80
2018-12-27T19:26:33.988Z,0.80
2018-12-27T19:29:16.439Z,0.70
2018-12-27T19:31:58.044Z,0.80
2018-12-27T19:34:39.501Z,0.80
2018-12-27T19:37:10.231Z,0.80
2018-12-27T19:39:59.155Z,0.90
2018-12-27T19:42:42.558Z,1.00
2018-12-27T19:45:24.320Z,1.10
2018-12-27T19:51:32.092Z,1.30
2018-12-27T19:54:14.369Z,1.40
2018-12-27T19:56:56.349Z,1.50
2018-12-27T19:59:38.616Z,1.40
2018-12-27T20:02:08.092Z,1.40
2018-12-27T20:04:57.044Z,1.10
2018-12-27T20:07:44.149Z,0.90
2018-12-27T20:10:13.631Z,0.80
2018-12-27T20:13:04.042Z,0.80
2018-12-27T20:15:45.543Z,0.90
2018-12-27T20:18:27.961Z,0.90
2018-12-27T20:21:09.427Z,0.90
2018-12-27T20:23:51.742Z,0.90
2018-12-27T20:26:33.815Z,0.80
2018-12-27T20:29:15.443Z,0.90
2018-12-27T20:32:01.081Z,1.10
2018-12-27T20:34:30.754Z,1.10
2018-12-27T20:37:21.146Z,0.80
2018-12-27T20:40:02.775Z,0.70
2018-12-27T20:42:53.228Z,0.60
2018-12-27T20:45:35.358Z,0.60
2018-12-27T20:48:16.920Z,0.70
2018-12-27T20:50:59.631Z,0.70
2018-12-27T20:53:41.935Z,0.60
2018-12-27T20:56:25.327Z,0.50
2018-12-27T20:59:06.815Z,0.40
2018-12-27T21:01:50.204Z,0.50
2018-12-27T21:04:32.059Z,0.40
2018-12-27T21:07:15.827Z,0.50
2018-12-27T21:09:57.415Z,0.40
2018-12-27T21:12:40.111Z,0.40
2018-12-27T21:15:21.754Z,0.60
2018-12-27T21:18:05.020Z,0.70
2018-12-27T21:20:47.473Z,0.60
2018-12-27T21:23:29.263Z,0.60
2018-12-27T21:26:11.802Z,0.50
2018-12-27T21:28:53.364Z,0.30
2018-12-27T21:31:35.298Z,0.40
2018-12-27T21:34:17.715Z,0.40
2018-12-27T21:37:01.217Z,0.30
2018-12-27T21:39:43.775Z,0.20
2018-12-27T21:42:26.810Z,0.20
2018-12-27T21:44:56.399Z,0.20
2018-12-27T21:47:45.940Z,0.20
2018-12-27T21:50:28.349Z,0.20
2018-12-27T21:53:10.639Z,0.40
2018-12-27T21:59:19.755Z,0.70
2018-12-27T22:02:02.015Z,0.70
2018-12-27T22:04:44.536Z,0.70
2018-12-27T22:07:27.822Z,0.60
2018-12-27T22:10:09.888Z,0.70
2018-12-27T22:12:53.351Z,0.70
2018-12-27T22:15:34.875Z,0.70
2018-12-27T22:18:17.079Z,0.80
2018-12-27T22:21:04.940Z,0.70
2018-12-27T22:23:46.907Z,0.40
2018-12-27T22:26:28.990Z,0.10
2018-12-27T22:29:11.097Z,-0.10
2018-12-27T22:31:52.781Z,0.00
2018-12-27T22:34:35.006Z,-0.10
2018-12-27T22:37:18.308Z,-0.10
2018-12-27T22:40:00.207Z,0.20
2018-12-27T22:42:43.308Z,0.00
2018-12-27T22:45:28.695Z,-0.10
2018-12-27T22:51:20.600Z,-0.20
2018-12-27T22:54:02.061Z,-0.20
2018-12-27T22:56:45.442Z,-0.20
2018-12-27T22:59:27.603Z,-0.20
2018-12-27T23:02:09.927Z,-0.30
2018-12-27T23:04:52.106Z,-0.30
2018-12-27T23:07:34.900Z,-0.10
2018-12-27T23:10:17.133Z,-0.20
2018-12-27T23:13:00.039Z,0.10
2018-12-27T23:15:42.214Z,0.10
2018-12-27T23:18:24.514Z,-0.10
2018-12-27T23:21:07.973Z,-0.10
2018-12-27T23:23:50.296Z,-0.10
2018-12-27T23:26:32.337Z,-0.10
2018-12-27T23:32:13.843Z,0.20
2018-12-27T23:34:55.484Z,0.40
2018-12-27T23:37:38.629Z,0.50
2018-12-27T23:40:20.139Z,0.50
2018-12-27T23:43:02.846Z,0.70
2018-12-27T23:45:46.283Z,0.70
2018-12-27T23:51:13.387Z,0.50
2018-12-27T23:53:55.579Z,0.50
2018-12-27T23:56:37.685Z,0.50
2018-12-27T23:59:19.797Z,0.30
